Disclaimer

Please do not use the information listed here in-flight or in-navigation, as they are not provided to us by the airports but are provided by volunteers, so they might be outdated.

Search


Regions


Airport information page

Radio informations:
UBE RDO - 118.05 MHz

Airport informations:
Latitude: 33° 55' 48.00" N
Longitude: 131° 16' 43.00" E
Elevation: 23 feet - 7 meters
Operating hours: Remarks
Operating agency: Civil government, landing fees and diplomatic clearance may be required
Timezone: UTC+9
Fuel: Jet A, without icing inhibitor.

Runway information:
07/25 - 8200 x 150 feet< - >2499 x 46 meters

Recent METARs:
RJDC 182300Z VRB02KT 9999 FEW020 BKN150 11/09 Q1018
RJDC 190000Z VRB02KT 9999 FEW020 BKN140 13/09 Q1018
RJDC 190000Z VRB02KT 9999 FEW020 BKN140 13/09 Q1018

Airport on the map: